Time;durP1;ratioP1;P1;durP2;ratioP2;P2;SDS_P1;SDS_P2;PMS_P1;PMS_P2;Temp;Humidity;BMP_temperature;BMP_pressure;BME280_temperature;BME280_humidity;BME280_pressure;Samples;Min_cycle;Max_cycle;Signal;HPM_P1;HPM_P2
2022/03/08 00:01:54;;;;;;;11.87;8.67;;;;;;;-0.96;78.19;102820.97;5026022;28;20178;-71
2022/03/08 00:04:20;;;;;;;12.90;8.93;;;;;;;-0.94;77.90;102823.63;5050595;28;20482;-71
2022/03/08 00:06:46;;;;;;;12.53;8.00;;;;;;;-0.95;78.06;102824.38;5032177;28;20885;-72
2022/03/08 00:09:11;;;;;;;12.13;7.70;;;;;;;-0.96;79.14;102827.63;5013870;28;20202;-72
2022/03/08 00:11:37;;;;;;;11.30;7.90;;;;;;;-0.95;78.81;102829.41;5034261;28;20459;-71
2022/03/08 00:14:02;;;;;;;12.07;8.10;;;;;;;-0.99;79.08;102822.28;5034604;28;20293;-72
2022/03/08 00:16:28;;;;;;;10.60;7.67;;;;;;;-1.01;79.11;102824.66;5041435;28;20233;-71
2022/03/08 00:18:53;;;;;;;11.43;7.73;;;;;;;-1.07;79.37;102821.56;5042553;28;20242;-71
2022/03/08 00:21:19;;;;;;;10.83;8.13;;;;;;;-1.02;78.94;102822.00;5049244;28;20213;-71
2022/03/08 00:23:45;;;;;;;12.40;8.03;;;;;;;-1.10;79.10;102815.38;5032283;28;20244;-72
2022/03/08 00:26:10;;;;;;;10.47;7.97;;;;;;;-1.11;79.15;102811.94;5031080;28;20202;-72
2022/03/08 00:28:35;;;;;;;11.73;7.20;;;;;;;-1.11;79.35;102816.97;5031396;28;20608;-71
2022/03/08 00:31:04;;;;;;;9.70;7.57;;;;;;;-1.15;79.13;102811.53;5028344;28;20228;-71
2022/03/08 00:33:29;;;;;;;9.57;7.43;;;;;;;-1.14;79.49;102815.78;5050829;28;20448;-71
2022/03/08 00:35:55;;;;;;;12.60;7.77;;;;;;;-1.24;79.07;102806.47;5030964;28;20218;-72
2022/03/08 00:38:21;;;;;;;9.00;7.33;;;;;;;-1.25;79.46;102813.84;5032985;28;20182;-72
2022/03/08 00:40:46;;;;;;;9.27;7.60;;;;;;;-1.24;79.06;102815.66;5049194;28;20186;-71
2022/03/08 00:43:14;;;;;;;11.73;7.47;;;;;;;-1.36;78.78;102815.34;5045116;28;20198;-72
2022/03/08 00:45:40;;;;;;;10.10;7.20;;;;;;;-1.32;79.29;102811.50;5014845;28;20848;-71
2022/03/08 00:48:05;;;;;;;10.77;7.30;;;;;;;-1.38;79.79;102808.41;5012772;28;20244;-71
2022/03/08 00:50:33;;;;;;;10.93;7.80;;;;;;;-1.37;79.54;102808.50;5033125;28;20183;-71
2022/03/08 00:52:59;;;;;;;11.77;7.73;;;;;;;-1.48;79.98;102806.59;5028957;28;20543;-70
2022/03/08 00:55:28;;;;;;;12.60;7.33;;;;;;;-1.48;79.70;102806.59;5021144;28;20536;-71
2022/03/08 00:57:54;;;;;;;13.30;8.73;;;;;;;-1.49;79.15;102806.44;5035171;28;20669;-72
2022/03/08 01:00:23;;;;;;;10.57;7.47;;;;;;;-1.50;79.51;102809.69;5042146;28;20448;-71
2022/03/08 01:02:49;;;;;;;10.60;8.10;;;;;;;-1.49;79.92;102809.84;5032293;28;20206;-71
2022/03/08 01:05:15;;;;;;;12.07;8.43;;;;;;;-1.46;80.18;102807.63;5024593;28;21133;-71
2022/03/08 01:07:41;;;;;;;13.30;7.97;;;;;;;-1.51;80.88;102798.75;5040920;28;20448;-71
2022/03/08 01:10:09;;;;;;;11.17;7.40;;;;;;;-1.54;80.32;102802.59;5028675;28;20190;-71
2022/03/08 01:12:35;;;;;;;10.87;7.50;;;;;;;-1.61;79.87;102806.13;5027017;28;20198;-71
2022/03/08 01:15:04;;;;;;;12.80;8.00;;;;;;;-1.67;80.07;102812.16;5002748;28;20514;-72
2022/03/08 01:17:30;;;;;;;11.77;7.63;;;;;;;-1.62;80.09;102803.44;5028815;28;20206;-71
2022/03/08 01:19:55;;;;;;;10.63;7.70;;;;;;;-1.62;79.43;102798.44;5030261;28;20944;-71
2022/03/08 01:22:21;;;;;;;9.83;7.37;;;;;;;-1.66;79.47;102799.75;5000928;28;20192;-71
2022/03/08 01:24:46;;;;;;;11.23;8.20;;;;;;;-1.67;79.87;102799.59;5025699;28;20185;-72
2022/03/08 01:27:12;;;;;;;11.50;7.23;;;;;;;-1.67;80.01;102805.53;5027990;28;20197;-71
2022/03/08 01:29:37;;;;;;;12.07;7.47;;;;;;;-1.74;80.27;102799.75;5028287;28;20204;-71
2022/03/08 01:32:03;;;;;;;12.00;8.20;;;;;;;-1.75;79.70;102790.47;5011869;28;20221;-72
2022/03/08 01:34:28;;;;;;;12.60;7.73;;;;;;;-1.77;79.56;102790.31;5029691;28;20551;-71
2022/03/08 01:36:54;;;;;;;10.90;7.60;;;;;;;-1.80;79.55;102795.00;5027354;28;20239;-71
2022/03/08 01:39:21;;;;;;;10.70;7.60;;;;;;;-1.86;80.62;102791.91;5031600;28;20361;-71
2022/03/08 01:41:46;;;;;;;12.70;8.57;;;;;;;-1.83;80.55;102794.69;5027779;28;20944;-70
2022/03/08 01:44:12;;;;;;;13.93;7.73;;;;;;;-1.84;81.05;102792.06;5016726;28;20502;-71
2022/03/08 01:46:37;;;;;;;10.80;7.70;;;;;;;-1.87;81.47;102785.09;5020516;28;20939;-71
2022/03/08 01:49:06;;;;;;;11.07;7.80;;;;;;;-1.87;81.43;102777.59;5021149;28;20703;-71
2022/03/08 01:51:33;;;;;;;10.20;6.77;;;;;;;-1.87;81.61;102776.69;5014726;28;20469;-72
2022/03/08 01:53:58;;;;;;;11.63;7.17;;;;;;;-1.90;81.56;102771.34;5049355;28;20554;-71
2022/03/08 01:56:24;;;;;;;13.07;7.50;;;;;;;-2.01;81.73;102769.41;5048693;28;20958;-70
2022/03/08 01:58:49;;;;;;;12.50;7.73;;;;;;;-1.98;81.16;102772.22;5032848;28;20621;-72
2022/03/08 02:01:15;;;;;;;12.43;7.63;;;;;;;-2.03;80.58;102769.25;5045247;28;20197;-71
2022/03/08 02:03:40;;;;;;;12.40;8.17;;;;;;;-2.06;80.72;102766.44;5049053;28;20285;-70
2022/03/08 02:06:06;;;;;;;12.07;7.53;;;;;;;-2.04;81.40;102777.53;5049043;28;20192;-72
2022/03/08 02:08:31;;;;;;;12.50;7.40;;;;;;;-2.08;81.56;102772.03;5034952;28;20578;-72
2022/03/08 02:10:57;;;;;;;12.90;8.07;;;;;;;-2.08;80.82;102772.03;5029256;28;20186;-71
2022/03/08 02:13:25;;;;;;;10.63;6.97;;;;;;;-2.13;81.32;102766.56;5029100;28;20701;-71
2022/03/08 02:15:51;;;;;;;12.80;7.60;;;;;;;-2.19;80.71;102758.44;5029119;28;20692;-70
2022/03/08 02:18:18;;;;;;;11.17;7.53;;;;;;;-2.17;81.68;102761.97;5029344;28;20452;-70
2022/03/08 02:20:43;;;;;;;11.67;8.10;;;;;;;-2.13;82.76;102758.13;5029447;28;20449;-71
2022/03/08 02:23:08;;;;;;;11.33;7.87;;;;;;;-2.16;82.25;102752.84;5029006;28;20480;-70
2022/03/08 02:25:34;;;;;;;11.97;8.00;;;;;;;-2.17;81.90;102758.56;5029925;28;20213;-70
2022/03/08 02:27:59;;;;;;;12.30;8.73;;;;;;;-2.22;81.65;102758.13;5049278;28;20193;-70
2022/03/08 02:30:26;;;;;;;12.80;8.13;;;;;;;-2.31;81.77;102757.19;5048584;28;20216;-73
2022/03/08 02:32:52;;;;;;;11.63;7.80;;;;;;;-2.33;82.25;102747.75;5013831;28;20288;-70
2022/03/08 02:35:22;;;;;;;13.50;8.07;;;;;;;-2.36;81.96;102748.31;5048225;28;20780;-70
2022/03/08 02:37:56;;;;;;;11.43;7.50;;;;;;;-2.35;81.61;102752.59;5020868;28;21072;-71
2022/03/08 02:40:24;;;;;;;13.57;8.13;;;;;;;-2.38;81.90;102751.41;5028903;28;20449;-72
2022/03/08 02:42:49;;;;;;;11.60;8.33;;;;;;;-2.42;81.97;102750.22;5029001;28;20457;-71
2022/03/08 02:45:16;;;;;;;11.33;7.73;;;;;;;-2.46;81.25;102744.72;5029152;28;20443;-72
2022/03/08 02:47:41;;;;;;;12.53;7.70;;;;;;;-2.46;80.92;102749.75;5031441;28;20183;-71
2022/03/08 02:50:10;;;;;;;13.07;7.83;;;;;;;-2.43;81.03;102750.94;5015302;28;20440;-70
2022/03/08 02:52:36;;;;;;;12.20;8.00;;;;;;;-2.59;81.15;102747.63;5052604;28;20216;-70
2022/03/08 02:55:02;;;;;;;12.77;7.77;;;;;;;-2.57;81.35;102756.19;5033278;28;20498;-70
2022/03/08 02:57:28;;;;;;;12.63;7.97;;;;;;;-2.56;81.42;102763.00;5041918;28;20721;-70
2022/03/08 02:59:53;;;;;;;13.50;7.77;;;;;;;-2.51;81.49;102756.81;5040859;28;20480;-70
2022/03/08 03:02:18;;;;;;;9.10;6.80;;;;;;;-2.52;81.11;102749.13;5032648;28;20657;-70
2022/03/08 03:04:45;;;;;;;11.60;7.63;;;;;;;-2.54;81.43;102754.00;5032884;28;20573;-70
2022/03/08 03:07:10;;;;;;;13.00;7.27;;;;;;;-2.56;82.01;102755.47;5032826;28;20208;-70
2022/03/08 03:09:36;;;;;;;9.77;7.20;;;;;;;-2.59;81.46;102759.25;5032387;28;20457;-72
2022/03/08 03:12:01;;;;;;;11.40;7.43;;;;;;;-2.65;81.19;102753.63;5032414;28;20658;-71
2022/03/08 03:14:26;;;;;;;9.70;7.13;;;;;;;-2.68;80.77;102761.72;5038461;28;20704;-70
2022/03/08 03:16:52;;;;;;;10.87;7.27;;;;;;;-2.75;80.55;102759.31;5049450;28;20206;-70
2022/03/08 03:19:17;;;;;;;11.50;7.30;;;;;;;-2.72;80.88;102767.16;5032404;28;20198;-70
2022/03/08 03:21:42;;;;;;;12.73;7.63;;;;;;;-2.77;81.11;102768.31;5032232;28;20182;-71
2022/03/08 03:24:08;;;;;;;13.47;7.77;;;;;;;-2.76;80.52;102766.72;5043359;28;20213;-71
2022/03/08 03:26:33;;;;;;;12.87;8.07;;;;;;;-2.74;81.41;102766.13;5052053;28;20255;-70
2022/03/08 03:28:58;;;;;;;11.20;7.87;;;;;;;-2.78;81.23;102754.00;5049811;28;20828;-71
2022/03/08 03:31:24;;;;;;;10.50;7.50;;;;;;;-2.82;81.75;102758.53;5014256;28;20194;-70
2022/03/08 03:33:49;;;;;;;12.67;7.57;;;;;;;-2.80;81.83;102759.59;5032000;28;20296;-70
2022/03/08 03:36:14;;;;;;;10.40;6.93;;;;;;;-2.83;82.04;102757.66;5026508;28;20209;-70
2022/03/08 03:38:40;;;;;;;12.53;7.57;;;;;;;-2.86;82.00;102756.44;5046240;28;20204;-71
2022/03/08 03:41:05;;;;;;;10.87;7.83;;;;;;;-2.87;81.51;102759.69;5052009;28;20178;-72
2022/03/08 03:43:30;;;;;;;10.37;7.10;;;;;;;-2.90;82.02;102760.25;5044633;28;20210;-71
2022/03/08 03:45:56;;;;;;;12.73;7.80;;;;;;;-2.97;82.22;102749.47;5032144;28;20266;-70
2022/03/08 03:48:21;;;;;;;11.60;7.70;;;;;;;-2.95;82.31;102758.91;5014363;28;20213;-72
2022/03/08 03:50:47;;;;;;;12.43;8.00;;;;;;;-2.94;82.11;102760.66;5030878;28;20276;-70
2022/03/08 03:53:12;;;;;;;10.47;7.93;;;;;;;-2.97;81.99;102767.00;5051378;28;20201;-70
2022/03/08 03:55:37;;;;;;;11.80;7.33;;;;;;;-2.97;81.77;102767.00;5023220;28;20654;-71
2022/03/08 03:58:03;;;;;;;11.20;8.60;;;;;;;-2.98;81.88;102765.22;5020696;28;20178;-70
2022/03/08 04:00:29;;;;;;;11.57;7.73;;;;;;;-2.96;82.17;102762.16;5031507;28;20566;-70
2022/03/08 04:02:54;;;;;;;13.97;8.20;;;;;;;-2.98;82.50;102750.19;5031653;28;21043;-70
2022/03/08 04:05:20;;;;;;;11.57;8.00;;;;;;;-3.03;82.54;102748.84;5044992;28;20194;-70
2022/03/08 04:07:45;;;;;;;10.97;8.00;;;;;;;-2.99;82.80;102748.44;5033076;28;20185;-71
2022/03/08 04:10:13;;;;;;;12.07;7.17;;;;;;;-3.03;82.87;102751.34;5050584;28;20182;-73
2022/03/08 04:12:38;;;;;;;11.13;7.47;;;;;;;-3.05;82.91;102748.69;5029739;28;20264;-73
2022/03/08 04:15:04;;;;;;;9.90;7.03;;;;;;;-3.08;82.47;102750.84;5023838;28;20437;-71
2022/03/08 04:17:30;;;;;;;11.57;7.67;;;;;;;-3.14;82.95;102751.84;5026564;28;20227;-73
2022/03/08 04:19:55;;;;;;;10.63;7.77;;;;;;;-3.16;82.71;102758.31;5031666;28;20995;-73
2022/03/08 04:22:21;;;;;;;11.00;7.40;;;;;;;-3.18;82.76;102753.13;5031357;28;20559;-73
2022/03/08 04:24:46;;;;;;;10.87;7.23;;;;;;;-3.19;82.91;102751.38;5031614;28;20186;-72
2022/03/08 04:27:12;;;;;;;9.97;7.43;;;;;;;-3.17;83.23;102757.41;5031638;28;20748;-71
2022/03/08 04:29:37;;;;;;;12.83;8.20;;;;;;;-3.21;82.97;102749.44;5031529;28;20267;-73
2022/03/08 04:32:03;;;;;;;11.27;8.03;;;;;;;-3.20;83.02;102754.59;5033671;28;20248;-72
2022/03/08 04:34:28;;;;;;;12.93;7.90;;;;;;;-3.19;83.50;102748.88;5051044;28;20296;-72
2022/03/08 04:36:53;;;;;;;10.33;7.47;;;;;;;-3.20;83.65;102753.72;5050920;28;20229;-70
2022/03/08 04:39:19;;;;;;;9.90;7.30;;;;;;;-3.26;83.37;102750.56;5016816;28;20200;-70
2022/03/08 04:41:44;;;;;;;11.87;7.93;;;;;;;-3.24;82.62;102754.13;5050752;28;20189;-70
2022/03/08 04:44:10;;;;;;;15.10;8.23;;;;;;;-3.23;82.83;102755.88;5050803;28;20210;-70
2022/03/08 04:46:36;;;;;;;12.83;8.77;;;;;;;-3.26;82.87;102775.63;5050984;28;20227;-73
2022/03/08 04:49:02;;;;;;;13.03;8.43;;;;;;;-3.24;82.58;102770.03;5050528;28;20436;-73
2022/03/08 04:51:27;;;;;;;10.83;7.97;;;;;;;-3.31;82.80;102771.75;5032725;28;20277;-72
2022/03/08 04:53:52;;;;;;;12.07;8.30;;;;;;;-3.28;83.17;102774.53;5050915;28;20770;-73
2022/03/08 04:56:18;;;;;;;12.53;8.13;;;;;;;-3.31;83.55;102772.63;5050836;28;20202;-72
2022/03/08 04:58:45;;;;;;;10.73;8.13;;;;;;;-3.29;82.99;102777.78;5029242;28;20195;-72
2022/03/08 05:01:10;;;;;;;12.13;8.27;;;;;;;-3.33;83.21;102786.59;5030499;28;20620;-71
2022/03/08 05:03:35;;;;;;;11.80;8.50;;;;;;;-3.38;83.67;102786.84;5012488;28;20518;-70
2022/03/08 05:06:01;;;;;;;11.93;8.47;;;;;;;-3.36;83.49;102788.78;5012728;28;20178;-70
2022/03/08 05:08:26;;;;;;;15.63;8.87;;;;;;;-3.35;83.60;102784.66;5030479;28;20274;-73
2022/03/08 05:10:51;;;;;;;13.00;8.47;;;;;;;-3.46;83.01;102787.63;5012680;28;20192;-70
2022/03/08 05:13:17;;;;;;;11.50;8.60;;;;;;;-3.46;83.05;102790.13;5030133;28;20285;-71
2022/03/08 05:15:42;;;;;;;12.37;8.93;;;;;;;-3.45;83.09;102794.44;5026232;28;20277;-70
2022/03/08 05:18:07;;;;;;;11.00;8.17;;;;;;;-3.48;82.94;102787.50;5032350;28;20202;-72
2022/03/08 05:20:33;;;;;;;13.63;9.00;;;;;;;-3.50;83.01;102796.44;5012339;28;20209;-70
2022/03/08 05:23:00;;;;;;;12.67;8.77;;;;;;;-3.52;82.87;102795.41;5033084;28;20198;-70
2022/03/08 05:25:27;;;;;;;11.67;7.67;;;;;;;-3.52;82.71;102800.41;5030063;28;20332;-71
2022/03/08 05:27:52;;;;;;;14.00;9.00;;;;;;;-3.54;82.24;102796.84;5045973;28;20440;-70
2022/03/08 05:30:18;;;;;;;11.93;8.00;;;;;;;-3.60;82.41;102798.72;5031956;28;20773;-70
2022/03/08 05:32:43;;;;;;;13.27;8.37;;;;;;;-3.58;83.12;102808.88;5049840;28;20209;-71
2022/03/08 05:35:08;;;;;;;11.30;7.87;;;;;;;-3.57;82.53;102803.16;5049881;28;20268;-71
2022/03/08 05:37:36;;;;;;;14.10;9.47;;;;;;;-3.57;83.42;102808.16;5049886;28;20217;-70
2022/03/08 05:40:03;;;;;;;12.30;8.20;;;;;;;-3.57;83.71;102806.56;5034013;28;20190;-71
2022/03/08 05:42:28;;;;;;;12.93;8.47;;;;;;;-3.56;83.09;102805.81;5029661;28;20441;-71
2022/03/08 05:44:54;;;;;;;13.10;9.23;;;;;;;-3.55;83.90;102804.22;5029798;28;20506;-71
2022/03/08 05:47:19;;;;;;;24.53;9.67;;;;;;;-3.53;83.51;102803.66;5029758;28;20277;-71
2022/03/08 05:49:44;;;;;;;16.70;9.00;;;;;;;-3.55;83.70;102809.22;5029554;28;20682;-70
2022/03/08 05:52:10;;;;;;;13.67;9.37;;;;;;;-3.57;83.69;102800.66;5029593;28;20608;-70
2022/03/08 05:54:35;;;;;;;13.33;9.00;;;;;;;-3.58;83.78;102811.38;5029642;28;20278;-70
2022/03/08 05:57:00;;;;;;;14.27;9.57;;;;;;;-3.57;83.46;102804.06;5031410;28;20665;-70
2022/03/08 05:59:26;;;;;;;16.67;9.57;;;;;;;-3.58;84.00;102806.38;5049392;28;20186;-71
2022/03/08 06:01:51;;;;;;;15.80;9.53;;;;;;;-3.55;83.90;102815.09;5049653;28;20185;-70
2022/03/08 06:04:16;;;;;;;12.13;9.07;;;;;;;-3.54;83.63;102808.50;5049560;28;20260;-71
2022/03/08 06:06:42;;;;;;;14.77;8.90;;;;;;;-3.50;83.35;102803.09;5044120;28;20185;-70
2022/03/08 06:09:07;;;;;;;14.97;9.23;;;;;;;-3.49;83.57;102802.34;5012146;28;20191;-70
2022/03/08 06:11:32;;;;;;;17.37;10.37;;;;;;;-3.52;83.69;102812.03;5037406;28;20721;-71
2022/03/08 06:13:59;;;;;;;15.63;10.70;;;;;;;-3.51;83.37;102802.19;5031617;28;20251;-70
2022/03/08 06:16:24;;;;;;;18.50;10.97;;;;;;;-3.50;83.53;102803.94;5042798;28;20288;-70
2022/03/08 06:18:50;;;;;;;16.60;11.17;;;;;;;-3.47;83.82;102814.31;5042050;28;20535;-70
2022/03/08 06:21:15;;;;;;;17.17;10.70;;;;;;;-3.45;83.57;102802.81;5049798;28;20197;-71
2022/03/08 06:23:41;;;;;;;17.50;11.20;;;;;;;-3.41;83.29;102806.56;5047353;28;20252;-70
2022/03/08 06:26:06;;;;;;;16.60;10.30;;;;;;;-3.40;83.79;102806.69;5056014;28;20189;-70
2022/03/08 06:28:31;;;;;;;17.60;10.83;;;;;;;-3.38;83.01;102807.75;5055861;28;20200;-72
2022/03/08 06:30:57;;;;;;;15.33;10.63;;;;;;;-3.33;83.13;102810.72;5037920;28;20198;-70
2022/03/08 06:33:22;;;;;;;18.47;11.30;;;;;;;-3.32;84.03;102808.41;5055600;28;20209;-71
2022/03/08 06:35:47;;;;;;;17.47;11.23;;;;;;;-3.27;83.87;102806.41;5055527;28;20185;-72
2022/03/08 06:38:13;;;;;;;17.43;11.43;;;;;;;-3.24;84.02;102807.59;5055825;28;20191;-70
2022/03/08 06:40:38;;;;;;;18.87;12.17;;;;;;;-3.15;83.34;102816.06;5055702;28;20177;-71
2022/03/08 06:43:03;;;;;;;15.33;11.13;;;;;;;-3.10;82.86;102809.03;5055403;28;20205;-72
2022/03/08 06:45:29;;;;;;;17.20;10.90;;;;;;;-3.02;82.78;102810.72;5045699;28;20318;-71
2022/03/08 06:47:54;;;;;;;17.00;10.80;;;;;;;-2.89;82.95;102806.25;5037759;28;20265;-71
2022/03/08 06:50:19;;;;;;;16.63;10.77;;;;;;;-2.79;82.95;102804.88;5034828;28;20217;-72
2022/03/08 06:52:45;;;;;;;16.70;11.80;;;;;;;-2.68;82.35;102808.44;5017099;28;20232;-71
2022/03/08 06:55:10;;;;;;;17.97;12.90;;;;;;;-2.56;82.74;102809.72;5035277;28;20182;-71
2022/03/08 06:57:37;;;;;;;19.50;13.90;;;;;;;-2.47;82.20;102806.53;5044823;28;20296;-71
2022/03/08 07:00:04;;;;;;;16.77;12.90;;;;;;;-2.34;81.69;102808.66;5025397;28;20205;-71
2022/03/08 07:02:30;;;;;;;19.57;11.97;;;;;;;-2.19;82.00;102806.09;5034742;28;20445;-70
2022/03/08 07:04:55;;;;;;;16.77;10.97;;;;;;;-2.02;81.81;102803.63;5035110;28;20445;-70
2022/03/08 07:07:21;;;;;;;20.40;11.03;;;;;;;-1.77;82.04;102791.91;5037589;28;20226;-70
2022/03/08 07:09:47;;;;;;;21.53;12.10;;;;;;;-1.55;81.77;102791.69;5050227;28;20189;-71
2022/03/08 07:12:13;;;;;;;17.97;11.50;;;;;;;-1.32;80.93;102794.78;5055270;28;20212;-71
2022/03/08 07:14:38;;;;;;;14.70;9.57;;;;;;;-1.09;81.11;102794.50;5035604;28;20441;-71
2022/03/08 07:17:04;;;;;;;14.40;9.80;;;;;;;-0.92;81.56;102789.50;5047637;28;20626;-70
2022/03/08 07:19:29;;;;;;;12.40;9.33;;;;;;;-0.62;82.21;102789.88;5009102;28;20198;-71
2022/03/08 07:21:55;;;;;;;13.57;8.63;;;;;;;-0.32;82.28;102792.75;5036087;28;20190;-72
2022/03/08 07:24:21;;;;;;;16.40;9.33;;;;;;;0.01;82.75;102789.19;5018607;28;20608;-70
2022/03/08 07:26:47;;;;;;;11.00;7.93;;;;;;;0.31;82.06;102783.56;5036491;28;20630;-72
2022/03/08 07:29:12;;;;;;;13.20;9.63;;;;;;;0.56;82.17;102782.53;5018184;28;20198;-71
2022/03/08 07:31:38;;;;;;;17.10;9.93;;;;;;;0.70;81.34;102779.59;5035427;28;20567;-73
2022/03/08 07:34:03;;;;;;;14.13;8.70;;;;;;;0.87;81.53;102776.06;5031934;28;20255;-71
2022/03/08 07:36:28;;;;;;;10.70;7.77;;;;;;;1.20;81.22;102772.34;5032176;28;20211;-71
2022/03/08 07:38:54;;;;;;;11.93;8.43;;;;;;;1.37;79.91;102782.25;5020097;28;20233;-73
2022/03/08 07:41:19;;;;;;;11.57;8.30;;;;;;;1.66;78.80;102783.09;5040642;28;21011;-72
2022/03/08 07:43:45;;;;;;;12.40;8.83;;;;;;;1.65;77.72;102777.94;5036005;28;20821;-72
2022/03/08 07:46:11;;;;;;;12.57;7.77;;;;;;;1.96;76.98;102775.63;5051768;28;20272;-72
2022/03/08 07:48:37;;;;;;;12.40;8.23;;;;;;;2.18;76.51;102776.66;5051385;28;20189;-72
2022/03/08 07:51:03;;;;;;;9.70;7.93;;;;;;;2.23;76.32;102780.44;5051746;28;20243;-72
2022/03/08 07:53:28;;;;;;;12.60;7.80;;;;;;;2.48;74.10;102780.84;5051712;28;20202;-72
2022/03/08 07:55:54;;;;;;;11.70;7.47;;;;;;;2.56;75.23;102782.34;5020251;28;20186;-70
2022/03/08 07:58:19;;;;;;;10.20;7.23;;;;;;;2.78;73.39;102768.16;5038318;28;20198;-70
2022/03/08 08:00:46;;;;;;;10.73;7.73;;;;;;;3.09;72.29;102775.78;5043488;28;20206;-70
2022/03/08 08:03:11;;;;;;;9.03;6.63;;;;;;;3.32;71.10;102772.59;5033111;28;20219;-71
2022/03/08 08:05:37;;;;;;;10.00;6.93;;;;;;;3.38;71.36;102780.66;5051350;28;20583;-71
2022/03/08 08:08:04;;;;;;;9.80;6.73;;;;;;;3.47;70.06;102776.31;5049817;28;20238;-72
2022/03/08 08:10:29;;;;;;;8.33;6.73;;;;;;;3.60;69.27;102776.50;5045403;28;20174;-71
2022/03/08 08:12:55;;;;;;;9.80;6.00;;;;;;;3.89;68.09;102782.16;5039173;28;20220;-71
2022/03/08 08:15:20;;;;;;;9.10;5.90;;;;;;;4.31;66.34;102781.25;5031257;28;20194;-71
2022/03/08 08:17:46;;;;;;;7.40;5.77;;;;;;;4.43;65.76;102784.72;5026706;28;20216;-70
2022/03/08 08:20:11;;;;;;;9.33;6.03;;;;;;;4.63;65.87;102781.09;5017531;28;20214;-72
2022/03/08 08:22:37;;;;;;;8.10;5.90;;;;;;;4.66;64.02;102782.22;5031150;28;20249;-71
2022/03/08 08:25:04;;;;;;;9.93;6.00;;;;;;;5.16;63.45;102776.63;5031221;28;20190;-72
2022/03/08 08:27:29;;;;;;;8.47;5.70;;;;;;;5.41;62.92;102772.53;5031299;28;20280;-72
2022/03/08 08:29:55;;;;;;;8.03;5.50;;;;;;;5.56;62.32;102782.84;5031250;28;20320;-71
2022/03/08 08:32:20;;;;;;;8.83;6.07;;;;;;;5.68;61.22;102781.19;5013216;28;20190;-72
2022/03/08 08:34:45;;;;;;;9.30;5.90;;;;;;;5.90;61.33;102782.81;5031261;28;20194;-72
2022/03/08 08:37:11;;;;;;;12.43;6.13;;;;;;;6.18;59.71;102783.91;5031160;28;20225;-71
2022/03/08 08:39:37;;;;;;;10.80;5.97;;;;;;;6.55;58.17;102780.53;5030873;28;20202;-71
2022/03/08 08:42:03;;;;;;;13.27;6.50;;;;;;;6.33;56.53;102776.44;5030682;28;20191;-72
2022/03/08 08:44:28;;;;;;;8.70;5.87;;;;;;;6.33;56.98;102779.88;5030622;28;20210;-74
2022/03/08 08:46:54;;;;;;;7.90;5.00;;;;;;;6.71;55.49;102777.31;5043597;28;20189;-73
2022/03/08 08:49:19;;;;;;;9.77;5.57;;;;;;;7.26;53.93;102770.81;5050826;28;20835;-71
2022/03/08 08:51:44;;;;;;;7.10;4.97;;;;;;;7.41;53.10;102773.44;5032542;28;20197;-72
2022/03/08 08:54:10;;;;;;;4.97;4.00;;;;;;;7.28;51.81;102773.44;5040373;28;20241;-73
2022/03/08 08:56:35;;;;;;;7.37;4.43;;;;;;;7.84;52.77;102765.09;5030818;28;20287;-72
2022/03/08 08:59:05;;;;;;;5.77;4.50;;;;;;;8.21;52.75;102761.47;5030522;28;20240;-72
2022/03/08 09:01:31;;;;;;;5.80;4.20;;;;;;;8.04;52.36;102755.31;5012495;28;20632;-73
2022/03/08 09:03:56;;;;;;;5.57;3.80;;;;;;;8.06;51.04;102748.63;5030202;28;20202;-73
2022/03/08 09:06:22;;;;;;;5.70;3.83;;;;;;;8.74;50.94;102750.13;5028501;28;20712;-71
2022/03/08 09:08:47;;;;;;;5.10;4.60;;;;;;;9.19;49.35;102739.94;5030004;28;20290;-71
2022/03/08 09:11:12;;;;;;;8.50;4.97;;;;;;;9.26;48.91;102737.81;5019024;28;20190;-72
2022/03/08 09:13:39;;;;;;;6.83;5.27;;;;;;;9.90;48.10;102742.16;5033497;28;20210;-72
2022/03/08 09:16:05;;;;;;;7.80;5.50;;;;;;;12.16;43.25;102719.06;5033034;28;20271;-74
2022/03/08 09:18:30;;;;;;;9.43;7.00;;;;;;;18.08;31.87;102694.78;5050140;28;20190;-73
2022/03/08 09:20:56;;;;;;;7.80;6.60;;;;;;;20.21;27.72;102693.63;5028101;28;20189;-73
2022/03/08 09:23:21;;;;;;;7.87;7.07;;;;;;;21.24;26.74;102688.38;5029852;28;20551;-74
2022/03/08 09:25:47;;;;;;;6.63;5.93;;;;;;;21.08;25.86;102699.59;5030120;28;20186;-74
2022/03/08 09:28:12;;;;;;;7.57;6.50;;;;;;;20.54;25.81;102698.28;5039414;28;20189;-74
2022/03/08 09:30:38;;;;;;;7.37;6.10;;;;;;;21.67;24.87;102694.66;5049720;28;20186;-74
2022/03/08 09:33:04;;;;;;;5.40;4.90;;;;;;;22.54;23.84;102694.91;5028008;28;20216;-74
2022/03/08 09:35:30;;;;;;;5.10;4.40;;;;;;;23.13;22.82;102690.47;5036068;28;20189;-73
2022/03/08 09:37:56;;;;;;;5.10;4.57;;;;;;;23.30;22.60;102682.63;5047325;28;20205;-74
2022/03/08 09:40:23;;;;;;;5.93;5.15;;;;;;;23.03;22.67;102693.09;5027476;28;20193;-73
2022/03/08 09:42:50;;;;;;;6.47;5.65;;;;;;;21.93;24.04;102695.66;5044654;28;20201;-72
2022/03/08 09:45:17;;;;;;;6.57;5.95;;;;;;;23.43;22.32;102684.31;5030415;28;20859;-73
2022/03/08 09:47:43;;;;;;;5.93;5.43;;;;;;;22.16;22.76;102696.56;5030842;28;20182;-73
2022/03/08 09:50:10;;;;;;;6.55;5.95;;;;;;;21.73;23.86;102695.59;5012031;28;20684;-74
2022/03/08 09:52:37;;;;;;;5.97;5.38;;;;;;;22.93;22.42;102686.16;5029660;28;20221;-73
2022/03/08 09:55:04;;;;;;;4.38;3.97;;;;;;;22.82;22.55;102687.91;5027697;28;20611;-74
2022/03/08 09:57:29;;;;;;;5.43;4.70;;;;;;;22.73;22.81;102683.56;5027629;28;20218;-73
2022/03/08 09:59:54;;;;;;;5.15;4.65;;;;;;;25.07;20.61;102681.41;5033242;28;20575;-75
2022/03/08 10:02:22;;;;;;;4.35;3.92;;;;;;;25.07;19.67;102677.03;5011319;28;20194;-73
2022/03/08 10:05:01;;;;;;;7.13;5.03;;;;;;;23.90;21.90;102675.38;5035749;28;20239;-74
2022/03/08 10:07:26;;;;;;;5.10;4.60;;;;;;;24.90;20.53;102675.44;5030175;28;20208;-73
2022/03/08 10:09:58;;;;;;;5.35;4.85;;;;;;;24.95;20.65;102673.69;5029591;28;20186;-73
2022/03/08 10:12:24;;;;;;;6.15;5.55;;;;;;;24.92;20.39;102674.59;5029700;28;20193;-72
2022/03/08 10:14:51;;;;;;;6.35;5.75;;;;;;;23.97;21.19;102666.59;5046713;28;20567;-74
2022/03/08 10:17:39;;;;;;;8.05;6.13;;;;;;;22.57;22.56;102687.06;5034521;28;20218;-73
2022/03/08 10:20:07;;;;;;;6.93;5.80;;;;;;;25.36;20.93;102676.72;5011833;28;20178;-74
2022/03/08 10:22:36;;;;;;;6.07;5.57;;;;;;;24.03;21.62;102679.66;5012743;28;20217;-73
2022/03/08 10:25:14;;;;;;;7.10;5.53;;;;;;;25.92;20.05;102676.88;5029130;28;20239;-73
2022/03/08 10:28:00;;;;;;;6.05;5.43;;;;;;;23.74;20.90;102680.66;5029401;28;20186;-73
2022/03/08 10:30:46;;;;;;;5.53;5.03;;;;;;;26.81;18.79;102658.78;5049167;28;20227;-73
2022/03/08 10:33:12;;;;;;;5.28;4.72;;;;;;;27.37;18.43;102650.66;5044539;28;20210;-73
2022/03/08 10:35:41;;;;;;;5.60;5.00;;;;;;;28.06;17.95;102651.75;5030743;28;20197;-73
2022/03/08 10:38:09;;;;;;;5.35;4.80;;;;;;;27.63;18.00;102658.84;5032765;28;20202;-73
2022/03/08 10:40:36;;;;;;;5.57;4.97;;;;;;;27.84;18.42;102655.78;5023895;28;20182;-73
2022/03/08 10:43:07;;;;;;;7.53;5.70;;;;;;;28.30;18.05;102645.88;5028920;28;20217;-74
2022/03/08 10:45:35;;;;;;;5.68;5.05;;;;;;;25.83;18.95;102656.84;5030313;28;20187;-73
2022/03/08 10:48:06;;;;;;;5.88;4.72;;;;;;;26.12;19.49;102653.81;5030648;28;20226;-74
2022/03/08 10:50:34;;;;;;;5.65;5.15;;;;;;;28.22;18.32;102642.56;5034277;28;20262;-73
2022/03/08 10:53:01;;;;;;;6.60;5.15;;;;;;;27.28;18.90;102647.34;5047432;28;20212;-73
2022/03/08 10:55:39;;;;;;;7.30;4.97;;;;;;;27.87;17.88;102639.03;5043609;28;20190;-73
2022/03/08 10:58:10;;;;;;;6.68;6.03;;;;;;;27.69;18.75;102647.34;5029254;28;20167;-73
2022/03/08 11:00:45;;;;;;;7.15;5.35;;;;;;;26.29;19.43;102649.16;5037221;28;20311;-73
2022/03/08 11:03:13;;;;;;;5.57;5.00;;;;;;;28.05;17.61;102633.34;5044528;28;20213;-73
2022/03/08 11:05:43;;;;;;;5.45;4.95;;;;;;;28.58;17.80;102641.66;5048901;28;20190;-73
2022/03/08 11:08:09;;;;;;;7.15;5.28;;;;;;;28.28;17.46;102638.91;5040581;28;20210;-73
2022/03/08 11:10:36;;;;;;;5.60;5.10;;;;;;;29.54;16.63;102638.06;5032730;28;20194;-74
2022/03/08 11:13:03;;;;;;;5.35;4.78;;;;;;;29.57;16.84;102636.22;5032588;28;20674;-75
2022/03/08 11:15:31;;;;;;;5.68;4.65;;;;;;;29.37;17.23;102630.66;5035221;28;20297;-72